sensor_id;sensor_type;location;lat;lon;timestamp;temperature;humidity
39899;DHT22;25571;47.876;10.642;2024-03-23T00:55:13;8.30;99.90
39899;DHT22;25571;47.876;10.642;2024-03-23T00:57:39;8.30;99.90
39899;DHT22;25571;47.876;10.642;2024-03-23T01:00:05;8.40;99.90
39899;DHT22;25571;47.876;10.642;2024-03-23T01:02:32;8.40;99.90
39899;DHT22;25571;47.876;10.642;2024-03-23T01:04:58;8.40;99.90
39899;DHT22;25571;47.876;10.642;2024-03-23T01:07:23;8.40;99.90
39899;DHT22;25571;47.876;10.642;2024-03-23T01:09:49;8.40;99.90
39899;DHT22;25571;47.876;10.642;2024-03-23T01:12:14;8.40;99.90
39899;DHT22;25571;47.876;10.642;2024-03-23T01:14:40;8.30;99.90
39899;DHT22;25571;47.876;10.642;2024-03-23T01:17:05;8.30;99.90
39899;DHT22;25571;47.876;10.642;2024-03-23T01:19:31;8.20;99.90
39899;DHT22;25571;47.876;10.642;2024-03-23T01:21:56;8.10;99.90
39899;DHT22;25571;47.876;10.642;2024-03-23T01:24:22;8.10;99.90
39899;DHT22;25571;47.876;10.642;2024-03-23T01:26:48;8.00;99.90
39899;DHT22;25571;47.876;10.642;2024-03-23T01:29:13;8.00;99.90
39899;DHT22;25571;47.876;10.642;2024-03-23T01:31:39;8.10;99.90
39899;DHT22;25571;47.876;10.642;2024-03-23T01:34:04;8.10;99.90
39899;DHT22;25571;47.876;10.642;2024-03-23T01:36:30;8.10;99.90
39899;DHT22;25571;47.876;10.642;2024-03-23T01:38:55;8.10;99.90
39899;DHT22;25571;47.876;10.642;2024-03-23T01:41:21;8.10;99.90
39899;DHT22;25571;47.876;10.642;2024-03-23T01:43:46;8.20;99.90
39899;DHT22;25571;47.876;10.642;2024-03-23T01:46:13;8.20;99.90
39899;DHT22;25571;47.876;10.642;2024-03-23T01:48:38;8.00;99.90
39899;DHT22;25571;47.876;10.642;2024-03-23T01:51:04;8.00;99.90
39899;DHT22;25571;47.876;10.642;2024-03-23T01:53:30;8.00;99.90
39899;DHT22;25571;47.876;10.642;2024-03-23T01:55:56;7.90;99.90
39899;DHT22;25571;47.876;10.642;2024-03-23T01:58:22;7.80;99.90
39899;DHT22;25571;47.876;10.642;2024-03-23T02:00:48;7.70;99.90
39899;DHT22;25571;47.876;10.642;2024-03-23T02:03:26;7.70;99.90
39899;DHT22;25571;47.876;10.642;2024-03-23T02:05:53;7.70;99.90
39899;DHT22;25571;47.876;10.642;2024-03-23T02:08:20;7.70;99.90
39899;DHT22;25571;47.876;10.642;2024-03-23T02:10:47;7.70;99.90
39899;DHT22;25571;47.876;10.642;2024-03-23T02:13:14;7.70;99.90
39899;DHT22;25571;47.876;10.642;2024-03-23T02:15:40;7.60;99.90
39899;DHT22;25571;47.876;10.642;2024-03-23T02:18:07;7.50;99.90
39899;DHT22;25571;47.876;10.642;2024-03-23T02:20:33;7.40;99.90
39899;DHT22;25571;47.876;10.642;2024-03-23T02:22:58;7.40;99.90
39899;DHT22;25571;47.876;10.642;2024-03-23T02:25:24;7.40;99.90
39899;DHT22;25571;47.876;10.642;2024-03-23T02:27:49;7.30;99.90
39899;DHT22;25571;47.876;10.642;2024-03-23T02:30:15;7.30;99.90
39899;DHT22;25571;47.876;10.642;2024-03-23T02:32:41;7.30;99.90
39899;DHT22;25571;47.876;10.642;2024-03-23T02:35:06;7.40;99.90
39899;DHT22;25571;47.876;10.642;2024-03-23T02:37:32;7.40;99.90
39899;DHT22;25571;47.876;10.642;2024-03-23T02:39:58;7.50;99.90
39899;DHT22;25571;47.876;10.642;2024-03-23T02:42:24;7.50;99.90
39899;DHT22;25571;47.876;10.642;2024-03-23T02:44:49;7.50;99.90
39899;DHT22;25571;47.876;10.642;2024-03-23T02:47:15;7.50;99.90
39899;DHT22;25571;47.876;10.642;2024-03-23T02:49:40;7.40;99.90
39899;DHT22;25571;47.876;10.642;2024-03-23T02:52:06;7.40;99.90
39899;DHT22;25571;47.876;10.642;2024-03-23T02:54:31;7.50;99.90
39899;DHT22;25571;47.876;10.642;2024-03-23T02:56:57;7.40;99.90
39899;DHT22;25571;47.876;10.642;2024-03-23T02:59:22;7.40;99.90
39899;DHT22;25571;47.876;10.642;2024-03-23T03:01:48;7.50;99.90
39899;DHT22;25571;47.876;10.642;2024-03-23T03:04:14;7.50;99.90
39899;DHT22;25571;47.876;10.642;2024-03-23T03:06:39;7.60;99.90
39899;DHT22;25571;47.876;10.642;2024-03-23T03:09:06;7.60;99.90
39899;DHT22;25571;47.876;10.642;2024-03-23T03:11:31;7.70;99.90
39899;DHT22;25571;47.876;10.642;2024-03-23T03:13:57;7.80;99.90
39899;DHT22;25571;47.876;10.642;2024-03-23T03:16:25;7.80;99.90
39899;DHT22;25571;47.876;10.642;2024-03-23T03:18:51;7.90;99.90
39899;DHT22;25571;47.876;10.642;2024-03-23T03:21:18;8.00;99.90
39899;DHT22;25571;47.876;10.642;2024-03-23T03:23:44;8.00;99.90
39899;DHT22;25571;47.876;10.642;2024-03-23T03:26:10;8.00;99.90
39899;DHT22;25571;47.876;10.642;2024-03-23T03:28:35;8.00;99.90
39899;DHT22;25571;47.876;10.642;2024-03-23T03:31:01;8.10;99.90
39899;DHT22;25571;47.876;10.642;2024-03-23T03:33:27;8.10;99.90
39899;DHT22;25571;47.876;10.642;2024-03-23T03:35:53;8.10;99.90
39899;DHT22;25571;47.876;10.642;2024-03-23T03:38:19;8.20;99.90
39899;DHT22;25571;47.876;10.642;2024-03-23T03:40:44;8.20;99.90
39899;DHT22;25571;47.876;10.642;2024-03-23T03:43:10;8.20;99.90
39899;DHT22;25571;47.876;10.642;2024-03-23T03:45:36;8.20;99.90
39899;DHT22;25571;47.876;10.642;2024-03-23T03:48:02;8.30;99.90
39899;DHT22;25571;47.876;10.642;2024-03-23T03:50:28;8.30;99.90
39899;DHT22;25571;47.876;10.642;2024-03-23T03:52:53;8.30;99.90
39899;DHT22;25571;47.876;10.642;2024-03-23T03:55:19;8.30;99.90
39899;DHT22;25571;47.876;10.642;2024-03-23T03:57:44;8.30;99.90
39899;DHT22;25571;47.876;10.642;2024-03-23T04:00:10;8.30;99.90
39899;DHT22;25571;47.876;10.642;2024-03-23T04:02:37;8.30;99.90
39899;DHT22;25571;47.876;10.642;2024-03-23T04:05:03;8.30;99.90
39899;DHT22;25571;47.876;10.642;2024-03-23T04:07:29;8.40;99.90
39899;DHT22;25571;47.876;10.642;2024-03-23T04:09:54;8.40;99.90
39899;DHT22;25571;47.876;10.642;2024-03-23T04:12:20;8.50;99.90
39899;DHT22;25571;47.876;10.642;2024-03-23T04:14:45;8.60;99.90
39899;DHT22;25571;47.876;10.642;2024-03-23T04:17:11;8.70;99.90
39899;DHT22;25571;47.876;10.642;2024-03-23T04:19:37;8.80;99.90
39899;DHT22;25571;47.876;10.642;2024-03-23T04:22:02;8.90;99.90
39899;DHT22;25571;47.876;10.642;2024-03-23T04:24:29;8.90;99.90
39899;DHT22;25571;47.876;10.642;2024-03-23T04:26:54;9.00;99.90
39899;DHT22;25571;47.876;10.642;2024-03-23T04:29:20;9.00;99.90
39899;DHT22;25571;47.876;10.642;2024-03-23T04:31:46;9.10;99.90
39899;DHT22;25571;47.876;10.642;2024-03-23T04:34:11;9.20;99.90
39899;DHT22;25571;47.876;10.642;2024-03-23T04:36:37;9.20;99.90
39899;DHT22;25571;47.876;10.642;2024-03-23T04:39:02;9.20;99.90
39899;DHT22;25571;47.876;10.642;2024-03-23T04:41:28;9.10;99.90
39899;DHT22;25571;47.876;10.642;2024-03-23T04:43:53;9.20;99.90
39899;DHT22;25571;47.876;10.642;2024-03-23T04:46:19;9.20;99.90
39899;DHT22;25571;47.876;10.642;2024-03-23T04:48:46;9.30;99.90
39899;DHT22;25571;47.876;10.642;2024-03-23T04:51:23;9.30;99.90
39899;DHT22;25571;47.876;10.642;2024-03-23T04:53:49;9.40;99.90
39899;DHT22;25571;47.876;10.642;2024-03-23T04:56:17;9.40;99.90
39899;DHT22;25571;47.876;10.642;2024-03-23T04:58:43;9.40;99.90
39899;DHT22;25571;47.876;10.642;2024-03-23T05:01:10;9.50;99.90
39899;DHT22;25571;47.876;10.642;2024-03-23T05:03:36;9.60;99.90
39899;DHT22;25571;47.876;10.642;2024-03-23T05:06:01;9.60;99.90
39899;DHT22;25571;47.876;10.642;2024-03-23T05:08:27;9.70;99.90
39899;DHT22;25571;47.876;10.642;2024-03-23T05:10:52;9.80;99.90
39899;DHT22;25571;47.876;10.642;2024-03-23T05:13:18;9.90;99.90
39899;DHT22;25571;47.876;10.642;2024-03-23T05:15:43;10.00;99.90
39899;DHT22;25571;47.876;10.642;2024-03-23T05:18:09;10.10;99.90
39899;DHT22;25571;47.876;10.642;2024-03-23T05:20:35;10.20;99.90
39899;DHT22;25571;47.876;10.642;2024-03-23T05:23:01;10.20;99.90
39899;DHT22;25571;47.876;10.642;2024-03-23T05:25:26;10.20;99.90
39899;DHT22;25571;47.876;10.642;2024-03-23T05:27:52;10.20;99.90
39899;DHT22;25571;47.876;10.642;2024-03-23T05:30:17;10.30;99.90
39899;DHT22;25571;47.876;10.642;2024-03-23T05:32:43;10.30;99.90
39899;DHT22;25571;47.876;10.642;2024-03-23T05:35:10;10.30;99.90
39899;DHT22;25571;47.876;10.642;2024-03-23T05:37:35;10.40;99.90
39899;DHT22;25571;47.876;10.642;2024-03-23T05:40:02;10.50;99.90
39899;DHT22;25571;47.876;10.642;2024-03-23T05:42:29;10.50;99.90
39899;DHT22;25571;47.876;10.642;2024-03-23T05:44:54;10.50;99.90
39899;DHT22;25571;47.876;10.642;2024-03-23T05:47:20;10.50;99.90
39899;DHT22;25571;47.876;10.642;2024-03-23T05:49:46;10.60;99.90
39899;DHT22;25571;47.876;10.642;2024-03-23T05:52:12;10.70;99.90
39899;DHT22;25571;47.876;10.642;2024-03-23T05:54:38;10.70;99.90
39899;DHT22;25571;47.876;10.642;2024-03-23T05:57:04;10.80;99.90
39899;DHT22;25571;47.876;10.642;2024-03-23T05:59:32;11.00;99.90
39899;DHT22;25571;47.876;10.642;2024-03-23T06:01:58;11.10;99.90
39899;DHT22;25571;47.876;10.642;2024-03-23T06:04:24;11.20;99.90
39899;DHT22;25571;47.876;10.642;2024-03-23T06:06:50;11.30;99.90
39899;DHT22;25571;47.876;10.642;2024-03-23T06:09:17;11.30;99.90
39899;DHT22;25571;47.876;10.642;2024-03-23T06:11:43;11.30;99.90
39899;DHT22;25571;47.876;10.642;2024-03-23T06:14:08;11.20;99.90
39899;DHT22;25571;47.876;10.642;2024-03-23T06:16:34;11.20;99.90
39899;DHT22;25571;47.876;10.642;2024-03-23T06:18:59;11.30;99.90
39899;DHT22;25571;47.876;10.642;2024-03-23T06:21:25;11.60;99.90
39899;DHT22;25571;47.876;10.642;2024-03-23T06:23:54;12.10;99.90
39899;DHT22;25571;47.876;10.642;2024-03-23T06:26:20;12.60;99.90
39899;DHT22;25571;47.876;10.642;2024-03-23T06:28:46;13.00;99.90
39899;DHT22;25571;47.876;10.642;2024-03-23T06:31:12;13.20;99.90
39899;DHT22;25571;47.876;10.642;2024-03-23T06:33:38;13.40;98.30
39899;DHT22;25571;47.876;10.642;2024-03-23T06:36:05;13.50;97.90
39899;DHT22;25571;47.876;10.642;2024-03-23T06:38:31;13.50;98.00
39899;DHT22;25571;47.876;10.642;2024-03-23T06:40:56;13.40;98.60
39899;DHT22;25571;47.876;10.642;2024-03-23T06:43:22;13.30;98.40
39899;DHT22;25571;47.876;10.642;2024-03-23T06:45:54;13.30;98.70
39899;DHT22;25571;47.876;10.642;2024-03-23T06:48:20;13.30;98.80
39899;DHT22;25571;47.876;10.642;2024-03-23T06:50:46;13.20;98.40
39899;DHT22;25571;47.876;10.642;2024-03-23T06:53:12;13.30;98.30
39899;DHT22;25571;47.876;10.642;2024-03-23T06:55:38;13.20;98.20
39899;DHT22;25571;47.876;10.642;2024-03-23T06:58:04;13.10;98.00
39899;DHT22;25571;47.876;10.642;2024-03-23T07:00:30;13.10;97.70
39899;DHT22;25571;47.876;10.642;2024-03-23T07:02:55;13.10;97.70
39899;DHT22;25571;47.876;10.642;2024-03-23T07:05:21;13.00;97.60
39899;DHT22;25571;47.876;10.642;2024-03-23T07:07:47;12.90;97.60
39899;DHT22;25571;47.876;10.642;2024-03-23T07:10:12;12.90;98.90
39899;DHT22;25571;47.876;10.642;2024-03-23T07:12:38;12.90;99.30
39899;DHT22;25571;47.876;10.642;2024-03-23T07:15:04;12.80;99.70
39899;DHT22;25571;47.876;10.642;2024-03-23T07:17:30;12.60;99.90
39899;DHT22;25571;47.876;10.642;2024-03-23T07:19:55;12.50;99.90
39899;DHT22;25571;47.876;10.642;2024-03-23T07:22:21;12.50;99.90
39899;DHT22;25571;47.876;10.642;2024-03-23T07:24:47;12.20;99.90
39899;DHT22;25571;47.876;10.642;2024-03-23T07:27:12;11.90;99.90
39899;DHT22;25571;47.876;10.642;2024-03-23T07:29:38;11.80;99.90
39899;DHT22;25571;47.876;10.642;2024-03-23T07:32:04;11.80;99.90
39899;DHT22;25571;47.876;10.642;2024-03-23T07:34:29;11.50;99.90
39899;DHT22;25571;47.876;10.642;2024-03-23T07:36:55;11.20;99.90
39899;DHT22;25571;47.876;10.642;2024-03-23T07:39:20;11.10;99.90
39899;DHT22;25571;47.876;10.642;2024-03-23T07:41:46;11.00;99.90
39899;DHT22;25571;47.876;10.642;2024-03-23T07:44:12;11.00;99.90
39899;DHT22;25571;47.876;10.642;2024-03-23T07:46:38;10.80;99.90
39899;DHT22;25571;47.876;10.642;2024-03-23T07:49:06;10.60;99.90
39899;DHT22;25571;47.876;10.642;2024-03-23T07:51:32;10.60;99.90
39899;DHT22;25571;47.876;10.642;2024-03-23T07:53:59;10.60;99.90
39899;DHT22;25571;47.876;10.642;2024-03-23T07:56:24;10.60;99.90
39899;DHT22;25571;47.876;10.642;2024-03-23T07:58:50;10.40;99.90
39899;DHT22;25571;47.876;10.642;2024-03-23T08:01:16;10.40;99.90
39899;DHT22;25571;47.876;10.642;2024-03-23T08:03:43;10.40;99.90
39899;DHT22;25571;47.876;10.642;2024-03-23T08:08:35;10.40;99.90
39899;DHT22;25571;47.876;10.642;2024-03-23T08:11:00;10.30;99.90
39899;DHT22;25571;47.876;10.642;2024-03-23T08:13:26;10.20;99.90
39899;DHT22;25571;47.876;10.642;2024-03-23T08:15:52;10.20;99.90
39899;DHT22;25571;47.876;10.642;2024-03-23T08:18:17;10.10;99.90
39899;DHT22;25571;47.876;10.642;2024-03-23T08:20:43;10.00;99.90
39899;DHT22;25571;47.876;10.642;2024-03-23T08:23:09;10.00;99.90
39899;DHT22;25571;47.876;10.642;2024-03-23T08:25:35;9.70;99.90
39899;DHT22;25571;47.876;10.642;2024-03-23T08:28:01;9.70;99.90
39899;DHT22;25571;47.876;10.642;2024-03-23T08:30:27;9.70;99.90
39899;DHT22;25571;47.876;10.642;2024-03-23T08:32:53;9.70;99.90
39899;DHT22;25571;47.876;10.642;2024-03-23T08:35:18;9.70;99.90
39899;DHT22;25571;47.876;10.642;2024-03-23T08:37:44;9.80;99.90
39899;DHT22;25571;47.876;10.642;2024-03-23T08:40:10;9.70;99.90
39899;DHT22;25571;47.876;10.642;2024-03-23T08:42:35;9.70;99.90
39899;DHT22;25571;47.876;10.642;2024-03-23T08:45:02;9.70;99.90
39899;DHT22;25571;47.876;10.642;2024-03-23T08:47:27;9.80;99.90
39899;DHT22;25571;47.876;10.642;2024-03-23T08:49:53;10.00;99.90
39899;DHT22;25571;47.876;10.642;2024-03-23T08:52:18;9.90;99.90
39899;DHT22;25571;47.876;10.642;2024-03-23T08:54:44;9.80;99.90
39899;DHT22;25571;47.876;10.642;2024-03-23T08:57:10;9.80;99.90
39899;DHT22;25571;47.876;10.642;2024-03-23T08:59:37;9.80;99.90
39899;DHT22;25571;47.876;10.642;2024-03-23T09:02:02;9.80;99.90
39899;DHT22;25571;47.876;10.642;2024-03-23T09:04:28;9.80;99.90
39899;DHT22;25571;47.876;10.642;2024-03-23T09:06:54;9.60;99.90
39899;DHT22;25571;47.876;10.642;2024-03-23T09:09:19;9.40;99.90
39899;DHT22;25571;47.876;10.642;2024-03-23T09:11:45;9.30;99.90
39899;DHT22;25571;47.876;10.642;2024-03-23T09:14:10;9.00;99.90
39899;DHT22;25571;47.876;10.642;2024-03-23T09:16:36;9.10;99.90
39899;DHT22;25571;47.876;10.642;2024-03-23T09:19:02;9.00;99.90
39899;DHT22;25571;47.876;10.642;2024-03-23T09:21:27;8.90;99.90
39899;DHT22;25571;47.876;10.642;2024-03-23T09:23:53;8.90;99.90
39899;DHT22;25571;47.876;10.642;2024-03-23T09:26:18;8.70;99.90
39899;DHT22;25571;47.876;10.642;2024-03-23T09:28:44;8.50;99.90
39899;DHT22;25571;47.876;10.642;2024-03-23T09:31:09;8.50;99.90
39899;DHT22;25571;47.876;10.642;2024-03-23T09:33:39;8.30;99.90
39899;DHT22;25571;47.876;10.642;2024-03-23T09:36:06;8.30;99.90
39899;DHT22;25571;47.876;10.642;2024-03-23T09:38:31;8.30;99.90
39899;DHT22;25571;47.876;10.642;2024-03-23T09:40:58;8.00;99.90
39899;DHT22;25571;47.876;10.642;2024-03-23T09:43:24;7.90;99.90
39899;DHT22;25571;47.876;10.642;2024-03-23T09:45:50;8.00;99.90
39899;DHT22;25571;47.876;10.642;2024-03-23T09:48:17;8.00;99.90
39899;DHT22;25571;47.876;10.642;2024-03-23T09:50:44;8.10;99.90
39899;DHT22;25571;47.876;10.642;2024-03-23T09:53:13;8.00;99.90
39899;DHT22;25571;47.876;10.642;2024-03-23T09:55:40;8.10;99.90
39899;DHT22;25571;47.876;10.642;2024-03-23T09:58:06;8.00;99.90
39899;DHT22;25571;47.876;10.642;2024-03-23T10:00:32;7.90;99.90
39899;DHT22;25571;47.876;10.642;2024-03-23T10:02:59;8.00;99.90
39899;DHT22;25571;47.876;10.642;2024-03-23T10:05:28;8.00;99.90
39899;DHT22;25571;47.876;10.642;2024-03-23T10:07:54;7.80;99.90
39899;DHT22;25571;47.876;10.642;2024-03-23T10:10:20;7.90;99.90
39899;DHT22;25571;47.876;10.642;2024-03-23T10:12:48;7.80;99.90
39899;DHT22;25571;47.876;10.642;2024-03-23T10:15:35;8.00;99.90
39899;DHT22;25571;47.876;10.642;2024-03-23T10:18:18;8.00;99.90
39899;DHT22;25571;47.876;10.642;2024-03-23T10:20:51;8.00;99.90
39899;DHT22;25571;47.876;10.642;2024-03-23T10:23:17;8.10;99.90
39899;DHT22;25571;47.876;10.642;2024-03-23T10:25:43;8.20;99.90
39899;DHT22;25571;47.876;10.642;2024-03-23T10:28:09;8.10;99.90
39899;DHT22;25571;47.876;10.642;2024-03-23T10:30:35;8.00;99.90
39899;DHT22;25571;47.876;10.642;2024-03-23T10:33:10;7.80;99.90
39899;DHT22;25571;47.876;10.642;2024-03-23T10:35:39;7.70;99.90
39899;DHT22;25571;47.876;10.642;2024-03-23T10:38:05;7.70;99.90
39899;DHT22;25571;47.876;10.642;2024-03-23T10:40:35;7.60;99.90
39899;DHT22;25571;47.876;10.642;2024-03-23T10:43:03;7.50;99.90
39899;DHT22;25571;47.876;10.642;2024-03-23T10:45:29;7.50;99.90
39899;DHT22;25571;47.876;10.642;2024-03-23T10:47:54;7.40;99.90
39899;DHT22;25571;47.876;10.642;2024-03-23T10:50:20;7.40;99.90
39899;DHT22;25571;47.876;10.642;2024-03-23T10:52:47;7.40;99.90
39899;DHT22;25571;47.876;10.642;2024-03-23T10:55:16;7.50;99.90
39899;DHT22;25571;47.876;10.642;2024-03-23T10:58:00;7.40;99.90
39899;DHT22;25571;47.876;10.642;2024-03-23T11:00:26;7.40;99.90
39899;DHT22;25571;47.876;10.642;2024-03-23T11:02:52;7.40;99.90
39899;DHT22;25571;47.876;10.642;2024-03-23T11:07:50;7.50;99.90
39899;DHT22;25571;47.876;10.642;2024-03-23T11:10:31;7.50;99.90
39899;DHT22;25571;47.876;10.642;2024-03-23T11:13:21;7.60;99.90
39899;DHT22;25571;47.876;10.642;2024-03-23T11:15:47;7.60;99.90
39899;DHT22;25571;47.876;10.642;2024-03-23T11:18:20;7.80;99.90
39899;DHT22;25571;47.876;10.642;2024-03-23T11:20:46;8.00;99.90
39899;DHT22;25571;47.876;10.642;2024-03-23T11:23:27;8.30;99.90
39899;DHT22;25571;47.876;10.642;2024-03-23T11:25:53;8.40;99.90
39899;DHT22;25571;47.876;10.642;2024-03-23T11:28:18;8.50;99.90
39899;DHT22;25571;47.876;10.642;2024-03-23T11:30:44;8.40;99.90
39899;DHT22;25571;47.876;10.642;2024-03-23T11:33:10;8.30;99.90
39899;DHT22;25571;47.876;10.642;2024-03-23T11:35:38;8.60;99.90
39899;DHT22;25571;47.876;10.642;2024-03-23T11:38:16;8.90;99.90
39899;DHT22;25571;47.876;10.642;2024-03-23T11:40:48;9.30;99.90
39899;DHT22;25571;47.876;10.642;2024-03-23T11:43:18;9.50;99.90
39899;DHT22;25571;47.876;10.642;2024-03-23T11:48:17;9.70;99.90
39899;DHT22;25571;47.876;10.642;2024-03-23T11:50:45;9.50;99.90
39899;DHT22;25571;47.876;10.642;2024-03-23T11:55:45;9.60;99.90
39899;DHT22;25571;47.876;10.642;2024-03-23T11:58:11;9.60;99.90
39899;DHT22;25571;47.876;10.642;2024-03-23T12:00:38;9.50;99.90
39899;DHT22;25571;47.876;10.642;2024-03-23T12:03:04;9.60;99.90
39899;DHT22;25571;47.876;10.642;2024-03-23T12:05:30;9.40;99.90
39899;DHT22;25571;47.876;10.642;2024-03-23T12:08:16;9.20;99.90
39899;DHT22;25571;47.876;10.642;2024-03-23T12:10:45;8.90;99.90
39899;DHT22;25571;47.876;10.642;2024-03-23T12:13:11;8.60;99.90
39899;DHT22;25571;47.876;10.642;2024-03-23T12:15:36;8.30;99.90
39899;DHT22;25571;47.876;10.642;2024-03-23T12:18:09;7.90;99.90
39899;DHT22;25571;47.876;10.642;2024-03-23T12:20:37;7.80;99.90
39899;DHT22;25571;47.876;10.642;2024-03-23T12:23:21;7.70;99.90
39899;DHT22;25571;47.876;10.642;2024-03-23T12:25:48;7.50;99.90
39899;DHT22;25571;47.876;10.642;2024-03-23T12:28:14;7.50;99.90
39899;DHT22;25571;47.876;10.642;2024-03-23T12:30:40;7.40;99.90
39899;DHT22;25571;47.876;10.642;2024-03-23T12:33:05;7.30;99.90
39899;DHT22;25571;47.876;10.642;2024-03-23T12:35:31;7.20;99.90
39899;DHT22;25571;47.876;10.642;2024-03-23T12:37:57;7.20;99.90
39899;DHT22;25571;47.876;10.642;2024-03-23T12:40:23;7.30;99.90
39899;DHT22;25571;47.876;10.642;2024-03-23T12:42:48;7.40;99.90
39899;DHT22;25571;47.876;10.642;2024-03-23T12:45:14;7.40;99.90
39899;DHT22;25571;47.876;10.642;2024-03-23T12:47:40;7.40;99.90
39899;DHT22;25571;47.876;10.642;2024-03-23T12:50:06;7.30;99.90
39899;DHT22;25571;47.876;10.642;2024-03-23T12:52:33;7.40;99.90
39899;DHT22;25571;47.876;10.642;2024-03-23T12:54:58;7.40;99.90
39899;DHT22;25571;47.876;10.642;2024-03-23T12:57:24;7.40;99.90
39899;DHT22;25571;47.876;10.642;2024-03-23T12:59:53;7.30;99.90
39899;DHT22;25571;47.876;10.642;2024-03-23T13:02:20;7.20;99.90
39899;DHT22;25571;47.876;10.642;2024-03-23T13:04:53;7.30;99.90
39899;DHT22;25571;47.876;10.642;2024-03-23T13:07:20;7.20;99.90
39899;DHT22;25571;47.876;10.642;2024-03-23T13:09:46;7.00;99.90
39899;DHT22;25571;47.876;10.642;2024-03-23T13:12:12;6.80;99.90
39899;DHT22;25571;47.876;10.642;2024-03-23T13:14:38;6.70;99.90
39899;DHT22;25571;47.876;10.642;2024-03-23T13:17:04;6.60;99.90
39899;DHT22;25571;47.876;10.642;2024-03-23T13:19:30;6.70;99.90
39899;DHT22;25571;47.876;10.642;2024-03-23T13:22:00;6.80;99.90
39899;DHT22;25571;47.876;10.642;2024-03-23T13:24:26;6.90;99.90
39899;DHT22;25571;47.876;10.642;2024-03-23T13:26:53;7.20;99.90
39899;DHT22;25571;47.876;10.642;2024-03-23T13:29:19;7.40;99.90
39899;DHT22;25571;47.876;10.642;2024-03-23T13:31:46;7.50;99.90
39899;DHT22;25571;47.876;10.642;2024-03-23T13:34:13;7.50;99.90
39899;DHT22;25571;47.876;10.642;2024-03-23T13:36:44;7.60;99.90
39899;DHT22;25571;47.876;10.642;2024-03-23T13:39:10;7.60;99.90
39899;DHT22;25571;47.876;10.642;2024-03-23T13:41:40;7.80;99.90
39899;DHT22;25571;47.876;10.642;2024-03-23T13:44:06;7.90;99.90
39899;DHT22;25571;47.876;10.642;2024-03-23T13:46:33;8.00;99.90
39899;DHT22;25571;47.876;10.642;2024-03-23T13:48:59;7.90;99.90
39899;DHT22;25571;47.876;10.642;2024-03-23T13:51:25;8.00;99.90
39899;DHT22;25571;47.876;10.642;2024-03-23T13:53:55;7.90;99.90
39899;DHT22;25571;47.876;10.642;2024-03-23T13:56:30;7.90;99.90
39899;DHT22;25571;47.876;10.642;2024-03-23T13:58:58;7.90;99.90
39899;DHT22;25571;47.876;10.642;2024-03-23T14:01:24;7.50;99.90
39899;DHT22;25571;47.876;10.642;2024-03-23T14:03:50;7.00;99.90
39899;DHT22;25571;47.876;10.642;2024-03-23T14:06:15;6.80;99.90
39899;DHT22;25571;47.876;10.642;2024-03-23T14:08:41;6.40;99.90
39899;DHT22;25571;47.876;10.642;2024-03-23T14:11:08;6.40;99.90
39899;DHT22;25571;47.876;10.642;2024-03-23T14:13:36;6.20;99.90
39899;DHT22;25571;47.876;10.642;2024-03-23T14:16:02;6.00;99.90
39899;DHT22;25571;47.876;10.642;2024-03-23T14:18:28;6.00;99.90
39899;DHT22;25571;47.876;10.642;2024-03-23T14:20:59;5.90;99.90
39899;DHT22;25571;47.876;10.642;2024-03-23T14:23:29;6.00;99.90
39899;DHT22;25571;47.876;10.642;2024-03-23T14:26:00;6.10;99.90
39899;DHT22;25571;47.876;10.642;2024-03-23T14:28:26;6.20;99.90
39899;DHT22;25571;47.876;10.642;2024-03-23T14:30:54;6.30;99.90
39899;DHT22;25571;47.876;10.642;2024-03-23T14:33:20;6.40;99.90
39899;DHT22;25571;47.876;10.642;2024-03-23T14:35:53;6.60;99.90
39899;DHT22;25571;47.876;10.642;2024-03-23T14:38:19;6.70;99.90
39899;DHT22;25571;47.876;10.642;2024-03-23T14:40:46;6.70;99.90
39899;DHT22;25571;47.876;10.642;2024-03-23T14:43:11;6.80;99.90
39899;DHT22;25571;47.876;10.642;2024-03-23T14:45:37;7.00;99.90
39899;DHT22;25571;47.876;10.642;2024-03-23T14:48:03;7.20;99.90
39899;DHT22;25571;47.876;10.642;2024-03-23T14:50:29;7.20;99.90
39899;DHT22;25571;47.876;10.642;2024-03-23T14:52:54;7.20;99.90
39899;DHT22;25571;47.876;10.642;2024-03-23T14:55:20;7.40;99.90
39899;DHT22;25571;47.876;10.642;2024-03-23T14:57:45;7.40;99.90
39899;DHT22;25571;47.876;10.642;2024-03-23T15:00:11;7.50;99.90
39899;DHT22;25571;47.876;10.642;2024-03-23T15:02:37;7.70;99.90
39899;DHT22;25571;47.876;10.642;2024-03-23T15:05:04;7.60;99.90
39899;DHT22;25571;47.876;10.642;2024-03-23T15:07:33;7.80;99.90
39899;DHT22;25571;47.876;10.642;2024-03-23T15:09:58;7.70;99.90
39899;DHT22;25571;47.876;10.642;2024-03-23T15:12:24;7.90;99.90
39899;DHT22;25571;47.876;10.642;2024-03-23T15:14:49;8.00;99.90
39899;DHT22;25571;47.876;10.642;2024-03-23T15:17:15;7.90;99.90
39899;DHT22;25571;47.876;10.642;2024-03-23T15:19:41;8.00;99.90
39899;DHT22;25571;47.876;10.642;2024-03-23T15:22:10;7.80;99.90
39899;DHT22;25571;47.876;10.642;2024-03-23T15:24:36;7.70;99.90
39899;DHT22;25571;47.876;10.642;2024-03-23T15:27:05;7.80;99.90
39899;DHT22;25571;47.876;10.642;2024-03-23T15:29:34;7.80;99.90
39899;DHT22;25571;47.876;10.642;2024-03-23T15:31:59;7.90;99.90
39899;DHT22;25571;47.876;10.642;2024-03-23T15:34:25;8.00;99.90
39899;DHT22;25571;47.876;10.642;2024-03-23T15:36:51;7.90;99.90
39899;DHT22;25571;47.876;10.642;2024-03-23T15:39:17;7.80;99.90
39899;DHT22;25571;47.876;10.642;2024-03-23T15:41:46;7.70;99.90
39899;DHT22;25571;47.876;10.642;2024-03-23T15:44:12;7.90;99.90
39899;DHT22;25571;47.876;10.642;2024-03-23T15:46:37;8.00;99.90
39899;DHT22;25571;47.876;10.642;2024-03-23T15:49:03;8.10;99.90
39899;DHT22;25571;47.876;10.642;2024-03-23T15:51:29;7.90;99.90
39899;DHT22;25571;47.876;10.642;2024-03-23T15:54:00;8.00;99.90
39899;DHT22;25571;47.876;10.642;2024-03-23T15:56:25;7.90;99.90
39899;DHT22;25571;47.876;10.642;2024-03-23T15:58:51;7.90;99.90
39899;DHT22;25571;47.876;10.642;2024-03-23T16:01:17;7.80;99.90
39899;DHT22;25571;47.876;10.642;2024-03-23T16:03:42;7.70;99.90
39899;DHT22;25571;47.876;10.642;2024-03-23T16:06:08;7.70;99.90
39899;DHT22;25571;47.876;10.642;2024-03-23T16:08:34;7.70;99.90
39899;DHT22;25571;47.876;10.642;2024-03-23T16:11:01;7.50;99.90
39899;DHT22;25571;47.876;10.642;2024-03-23T16:13:27;7.40;99.90
39899;DHT22;25571;47.876;10.642;2024-03-23T16:15:57;7.20;99.90
39899;DHT22;25571;47.876;10.642;2024-03-23T16:18:24;7.20;99.90
39899;DHT22;25571;47.876;10.642;2024-03-23T16:21:01;7.20;99.90
39899;DHT22;25571;47.876;10.642;2024-03-23T16:23:27;7.10;99.90
39899;DHT22;25571;47.876;10.642;2024-03-23T16:25:54;6.90;99.90
39899;DHT22;25571;47.876;10.642;2024-03-23T16:28:42;6.90;99.90